Denver, CO (80212)

6:31 AM MDT on April 30, 2017 (GMT -0600)
38th and Sheridan | | Change Station
Active Advisory: Freeze Warning Active Notice: Public Information Statement

Elev 5449 ft 39.77 °N, 105.05 °W | Updated 12 seconds ago

Clear
Clear
25.3 °F
Feels Like 25 °F
N
0.0
Wind Variable Wind from ENE
Gusts 0.0 mph

Today
High -- | Low -- °F
--% Chance of Precip.
Yesterday
High -- | Low -- °F
Precip. -- in
Pressure 30.02 in
Visibility 10.0 miles
Clouds Clear
Windchill 25 °F
Dew Point 17 °F
Humidity 71%
Rainfall 0.00 in
Snow Depth Not available.
6:01 AM 7:53 PM
Waxing Crescent, 22% visible
METAR KBJC 301154Z AUTO 31007KT 10SM CLR 00/M10 A3002 RMK AO2
Pressure 30.02 in
Visibility 10.0 miles
Clouds Clear
Windchill 25 °F
Dew Point 17 °F
Humidity 71%
Rainfall 0.00 in
Snow Depth Not available.
6:01 AM 7:53 PM
Waxing Crescent, 22% visible
METAR KBJC 301154Z AUTO 31007KT 10SM CLR 00/M10 A3002 RMK AO2

Get Your Daily Forecast Email!

Thanks for signing up!

Be on the lookout for a verification email in your inbox.

You'll start receiving severe weather alerts in your inbox..

×

10-Day Weather Forecast

Almanac

Astronomy

Apr. 30, 2017 Rise Set
Actual Time
Civil Twilight
Nautical Twilight
Astronomical Twilight
Moon
Length of Visible Light
Length of Day
Tomorrow will be .
, % of the Moon is Illuminated

Today's Extremes

State Highs State Lows

Community

WunderPhotos

WunderBlog® & News

Nearby

Air Quality

  Air Quality AQ Index Pollutant
Not available.

Snow Depth

Station Depth Elevation

Earthquake Activity

City Distance Mag. Time & Date
Minimum magnitude displayed is 2.5.

Coastal Water Temperatures

Place Temperature

Stations

Nearby Weather Stations

Station Location Temp. Windchill Dew Point Humidity Wind Precip. Elev Updated Type
                   

Watches & Warnings

Freeze Warning
Issued: 5:05 AM MDT Apr. 30, 2017 – National Weather Service

... Freeze warning remains in effect until 8 am MDT this morning...

* temperature... lows in the mid to upper 20s in most areas, around
freezing over far northeast Colorado. Coldest spots near 20
degrees, mainly low lying areas north of Denver. Temperatures
will rise into the 30s by 9 am and then into the 50s by
afternoon.

* Impacts... damage to irrigation systems and tender vegetation.

Precautionary/preparedness actions...

Residents should drain sprinkler systems, unhook hoses, and
protect cold-sensitive vegetation.